USTRUSPP

Guest
Details From USTR - Roschino
To USPP - Bolshoye Savino
Flight Number -
Tags Generated
Created
Modified
Stats Distance 303 nm / 560 km
Max Altitude 0 ft / 0 m
Waypoints 3
Social Downloads 0
Likes 0
Share VATSIM

Download

Looking for another format? Having issues loading an existing format? Contact us
Advertisement - Login to hide

Notes

Generated

Route

USTR ROSIB USPP

ID Type Via Altitude Latitude Longitude Leg Dist Tot Dist Heading (true) Name
O USTR APT - 0 ft / 0 m 57.17551˚ 65.29199˚ - 0 nm - -
ROSIB FIX - 0 ft / 0 m 57.83333˚ 56.66667˚ 280 nm 280 nm 282° / 274° -
O USPP APT - 0 ft / 0 m 57.90452˚ 56.00177˚ 21 nm 302 nm 282° / 281° -

Altitude Profile

Advertisement - Login to hide

Weather


0- 5 10 15 20 25 30 35+ Temperature / ° C

Clouds and Precipitation
Forecast for 2017-12-13 12:00 UTC. Updated 22 minutes ago

Ground ~20,000 ft ~40,000 ft Winds

USTR

Details ICAO USTR (TJM)
Name Roschino
Region Russia
Timezone Asia/Yekaterinburg (UTC+5.0)
Stats Elevation 377 ft / 115 m (AMSL)
Location 57.180416° 65.314677°
Runways 3
Magnetic Variation 14.974° E

METAR

USTR 130730Z 21004MPS CAVOK M16/M18 Q1040 R21/CLRD65 NOSIG RMK QFE770/1027

Decode

TAF

TAF USTR 130458Z 1306/1406 19005MPS 9999 SCT020 TEMPO 1306/1309 BKN011 SCT020 TEMPO 1318/1406 3100 BR BKN011 BECMG 1403/1404 18007MPS

Decode

Departure Runways

ID Width Length Bearing (true) Bearing (mag) Surface Threshold Offset Overrun Length
03 148 ft / 45 m 9,827 ft / 2,995 m 47.68° 32.71° Asphalt 0 ft / 0 m 0 ft / 0 m
03L 328 ft / 100 m 6,705 ft / 2,044 m 47.58° 32.61° Grass 0 ft / 0 m 0 ft / 0 m
12 164 ft / 50 m 8,820 ft / 2,688 m 134.79° 119.82° Asphalt 0 ft / 0 m 0 ft / 0 m
21 148 ft / 45 m 9,827 ft / 2,995 m 227.71° 212.74° Asphalt 0 ft / 0 m 0 ft / 0 m
21R 328 ft / 100 m 6,705 ft / 2,044 m 227.60° 212.63° Grass 0 ft / 0 m 0 ft / 0 m
30 164 ft / 50 m 8,820 ft / 2,688 m 314.81° 299.84° Asphalt 0 ft / 0 m 0 ft / 0 m

USPP

Details ICAO USPP (PEE)
Name BOLSHOYE SAVINO
Region Russia
Timezone Asia/Yekaterinburg (UTC+5.0)
Stats Elevation 404 ft / 123 m (AMSL)
Location 57.914517° 56.021214°
Runways 1
Magnetic Variation 15.587° E

METAR

USPP 130730Z 12005MPS 9999 BKN033 M05/M07 Q1031 R21/290150 TEMPO 14009MPS RMK QFE762

Decode

TAF

TAF USPP 130459Z 1306/1406 17007G13MPS 9999 BKN011 OVC070 TEMPO 1306/1318 3100 -SN BKN006 OVC070 BECMG 1318/1320 3100 -SN OVC011

Decode

Destination Runways

ID Width Length Bearing (true) Bearing (mag) Surface Threshold Offset Overrun Length
03 161 ft / 49 m 10,493 ft / 3,198 m 45.91° 30.32° Concrete 0 ft / 0 m 165 ft / 50 m
21 161 ft / 49 m 10,493 ft / 3,198 m 225.95° 210.36° Concrete 0 ft / 0 m 155 ft / 47 m

Approach Navaids

Runway Type Ident Frequency Range Bearing (true) Bearing (mag) Slope Elevation
21 Localiser IPX 109.90 MHz 18 nm / 33 km 222.51° 206.92° - 404 ft / 123 m (AMSL)
21 Glidescope IPX 109.90 MHz 10 nm / 19 km 225.93° 210.34° 2.70° 150 ft / 46 m (AMSL)

Popular Alternatives